CheckWX is a tool to help pilots better visualize weather data.  It is not intended as a substitute for an official pre-flight weather briefing.

01:17:51 UTC

LIPL TAF
Ghedi Airport
Ghedi, Italy
TAF LIPL 232300Z 2400/2409 08003KT CAVOK PROB40 TEMPO 2402/2407 4000 BR

Feb-24@
00:00 UTC

Feb-24 @ 00:00 UTC

Feb-24@
09:00 UTC

Feb-24 @ 09:00 UTC

TAF LIPL 232300Z 2400/2409 08003KT CAVOK
Wind
  • 080° at 3 KTS
Conditions
No significant weather
Cloud Levels
  • No significant clouds

Feb-24@
02:00 UTC

Feb-24 @ 02:00 UTC

Feb-24@
07:00 UTC

Feb-24 @ 07:00 UTC

PROB40 TEMPO 2402/2407 4000 BR

Temporary - 40% Likelihood

Temporary - 40% Likelihood during this time.

Conditions
Mist